Time;durP1;ratioP1;P1;durP2;ratioP2;P2;SDS_P1;SDS_P2;PMS_P1;PMS_P2;Temp;Humidity;BMP_temperature;BMP_pressure;BME280_temperature;BME280_humidity;BME280_pressure;Samples;Min_cycle;Max_cycle;Signal;HPM_P1;HPM_P2
2023/07/06 00:01:00;;;;;;;7.70;2.10;;;;;;;16.48;77.66;100246.75;109902;1283;22128;-81
2023/07/06 00:03:48;;;;;;;7.50;2.20;;;;;;;16.40;77.68;100249.44;109927;1283;22279;-81
2023/07/06 00:06:20;;;;;;;7.30;1.70;;;;;;;16.30;77.74;100251.52;109860;1281;22252;-80
2023/07/06 00:08:52;;;;;;;6.80;1.50;;;;;;;16.23;77.54;100248.39;109836;1284;22647;-81
2023/07/06 00:11:23;;;;;;;8.10;1.40;;;;;;;16.17;77.49;100254.19;109819;1281;22300;-80
2023/07/06 00:13:54;;;;;;;6.10;1.40;;;;;;;16.12;77.56;100257.59;109834;1280;22167;-81
2023/07/06 00:16:25;;;;;;;6.50;1.40;;;;;;;16.06;77.54;100259.55;109837;1284;22231;-80
2023/07/06 00:18:58;;;;;;;8.00;1.30;;;;;;;16.03;77.48;100259.52;109838;1284;22862;-81
2023/07/06 00:21:30;;;;;;;6.30;1.30;;;;;;;15.98;77.60;100258.64;109826;1283;22223;-80
2023/07/06 00:24:01;;;;;;;6.70;1.60;;;;;;;15.93;77.48;100258.56;109855;1281;22215;-81
2023/07/06 00:26:32;;;;;;;5.30;1.20;;;;;;;15.87;77.54;100260.89;109864;1284;22156;-80
2023/07/06 00:29:04;;;;;;;10.20;1.60;;;;;;;15.80;77.44;100266.98;109792;1283;22253;-81
2023/07/06 00:31:50;;;;;;;19.70;1.60;;;;;;;15.73;77.45;100268.38;109846;1281;22150;-80
2023/07/06 00:34:27;;;;;;;6.70;1.30;;;;;;;15.67;77.39;100266.86;109812;1276;22270;-80
2023/07/06 00:36:57;;;;;;;6.00;1.40;;;;;;;15.61;77.33;100265.73;109854;1273;22143;-80
2023/07/06 00:39:28;;;;;;;7.90;1.50;;;;;;;15.56;77.35;100268.09;109849;1283;22157;-81
2023/07/06 00:41:59;;;;;;;7.90;1.70;;;;;;;15.49;77.50;100266.61;109857;1284;22230;-81
2023/07/06 00:44:52;;;;;;;7.00;1.40;;;;;;;15.45;77.36;100270.65;109814;1281;22306;-81
2023/07/06 00:47:31;;;;;;;8.40;1.30;;;;;;;15.45;77.30;100269.95;109852;1280;22173;-80
2023/07/06 00:50:07;;;;;;;11.30;1.40;;;;;;;15.44;77.48;100268.29;109821;1277;22190;-81
2023/07/06 00:52:41;;;;;;;8.20;1.40;;;;;;;15.41;77.49;100268.43;109811;1279;22379;-80
2023/07/06 00:55:15;;;;;;;7.90;1.60;;;;;;;15.38;77.37;100275.18;109854;1278;22372;-81
2023/07/06 00:57:51;;;;;;;9.10;1.50;;;;;;;15.36;77.43;100276.00;109857;1284;22121;-81
2023/07/06 01:00:23;;;;;;;8.70;1.60;;;;;;;15.31;77.48;100280.61;109843;1273;22179;-81
2023/07/06 01:02:59;;;;;;;7.70;1.50;;;;;;;15.25;77.54;100280.76;109840;1284;22221;-81
2023/07/06 01:05:31;;;;;;;9.10;1.50;;;;;;;15.19;77.48;100282.29;109843;1280;22249;-81
2023/07/06 01:08:08;;;;;;;10.70;1.40;;;;;;;15.15;77.49;100290.46;109847;1279;22186;-80
2023/07/06 01:10:41;;;;;;;8.20;1.60;;;;;;;15.10;77.50;100289.48;109860;1280;22146;-81
2023/07/06 01:13:11;;;;;;;9.70;1.70;;;;;;;15.06;77.41;100282.83;109854;1284;25071;-81
2023/07/06 01:15:46;;;;;;;5.90;1.30;;;;;;;15.02;77.42;100285.89;109850;1284;22192;-82
2023/07/06 01:18:24;;;;;;;6.50;1.40;;;;;;;14.97;77.35;100287.57;109841;1284;22265;-80
2023/07/06 01:21:09;;;;;;;8.30;1.30;;;;;;;14.91;77.51;100287.14;109848;1282;22152;-80
2023/07/06 01:24:06;;;;;;;8.10;1.40;;;;;;;14.87;77.32;100291.93;109847;1284;22222;-83
2023/07/06 01:27:07;;;;;;;8.10;1.30;;;;;;;14.82;77.30;100290.54;109761;1276;22149;-81
2023/07/06 01:30:07;;;;;;;7.60;1.50;;;;;;;14.77;77.37;100294.92;109299;1291;22219;-81
2023/07/06 01:32:46;;;;;;;9.00;1.50;;;;;;;14.73;77.22;100289.45;109372;1288;22346;-80
2023/07/06 01:35:23;;;;;;;7.40;1.40;;;;;;;14.70;77.38;100290.52;109364;1279;22672;-81
2023/07/06 01:37:55;;;;;;;6.30;1.20;;;;;;;14.67;77.38;100292.04;109378;1291;23033;-81
2023/07/06 01:40:26;;;;;;;5.90;1.10;;;;;;;14.64;77.29;100288.70;109333;1290;22397;-80
2023/07/06 01:42:59;;;;;;;8.30;1.60;;;;;;;14.61;77.38;100293.25;109402;1291;22227;-81
2023/07/06 01:45:31;;;;;;;11.10;1.30;;;;;;;14.56;77.39;100293.13;109358;1286;22222;-80
2023/07/06 01:48:05;;;;;;;8.40;1.50;;;;;;;14.48;77.63;100292.79;109389;1286;22285;-80
2023/07/06 01:50:44;;;;;;;7.10;1.40;;;;;;;14.39;77.69;100288.45;109383;1291;22198;-80
2023/07/06 01:53:20;;;;;;;6.70;1.50;;;;;;;14.32;77.84;100290.31;109361;1289;22248;-80
2023/07/06 01:56:01;;;;;;;7.80;1.40;;;;;;;14.24;77.90;100288.97;109405;1291;22194;-80
2023/07/06 01:58:36;;;;;;;7.70;1.30;;;;;;;14.16;78.06;100290.97;109363;1291;22268;-81
2023/07/06 02:01:14;;;;;;;9.20;1.60;;;;;;;14.11;78.05;100289.11;109393;1285;22364;-81
2023/07/06 02:03:46;;;;;;;8.30;1.70;;;;;;;14.06;78.23;100291.98;109218;1288;22208;-81
2023/07/06 02:06:18;;;;;;;9.00;1.60;;;;;;;14.05;78.24;100296.42;109390;1284;23005;-81
2023/07/06 02:08:49;;;;;;;6.80;1.20;;;;;;;14.01;78.29;100300.89;109830;1276;22297;-80
2023/07/06 02:11:24;;;;;;;8.00;1.60;;;;;;;13.99;78.57;100305.83;109840;1280;22270;-81
2023/07/06 02:13:55;;;;;;;7.10;1.40;;;;;;;13.98;78.72;100313.34;109824;1283;22159;-80
2023/07/06 02:16:26;;;;;;;6.90;1.30;;;;;;;13.95;78.96;100310.39;109834;1279;22197;-80
2023/07/06 02:19:01;;;;;;;9.40;1.40;;;;;;;13.91;79.04;100305.22;109871;1284;22239;-80
2023/07/06 02:21:32;;;;;;;6.40;1.50;;;;;;;13.85;79.20;100303.20;109841;1284;22176;-80
2023/07/06 02:24:04;;;;;;;6.20;1.50;;;;;;;13.81;79.35;100309.39;109875;1278;23272;-80
2023/07/06 02:26:35;;;;;;;8.20;1.90;;;;;;;13.76;79.56;100312.22;109859;1283;22156;-80
2023/07/06 02:29:05;;;;;;;8.70;1.70;;;;;;;13.74;79.76;100313.52;109838;1279;22253;-79
2023/07/06 02:31:36;;;;;;;7.80;1.70;;;;;;;13.71;79.87;100313.55;109849;1280;22662;-80
2023/07/06 02:34:07;;;;;;;8.50;1.80;;;;;;;13.69;79.87;100321.70;109848;1283;22162;-79
2023/07/06 02:36:38;;;;;;;9.90;2.00;;;;;;;13.65;80.00;100318.30;109866;1277;22951;-80
2023/07/06 02:39:09;;;;;;;7.40;1.60;;;;;;;13.64;80.16;100326.51;109836;1281;22254;-79
2023/07/06 02:41:40;;;;;;;8.20;1.70;;;;;;;13.63;80.30;100321.75;109835;1284;22223;-80
2023/07/06 02:44:10;;;;;;;9.50;2.00;;;;;;;13.61;80.68;100326.83;109830;1276;22387;-80
2023/07/06 02:46:41;;;;;;;10.00;2.10;;;;;;;13.60;80.84;100330.50;109856;1277;22201;-79
2023/07/06 02:49:12;;;;;;;19.60;3.60;;;;;;;13.60;80.90;100333.61;109860;1276;22240;-79
2023/07/06 02:51:43;;;;;;;11.10;1.80;;;;;;;13.61;81.02;100343.46;109869;1284;22281;-79
2023/07/06 02:54:15;;;;;;;9.30;1.70;;;;;;;13.61;81.20;100341.67;109854;1278;22156;-80
2023/07/06 02:56:47;;;;;;;6.20;1.40;;;;;;;13.61;81.37;100337.48;109874;1280;23265;-80
2023/07/06 02:59:18;;;;;;;10.20;1.50;;;;;;;13.61;81.38;100340.25;109876;1284;23348;-79
2023/07/06 03:01:49;;;;;;;10.90;2.10;;;;;;;13.58;81.48;100337.27;109881;1270;22207;-79
2023/07/06 03:04:20;;;;;;;8.40;1.70;;;;;;;13.57;81.55;100335.82;109839;1278;22970;-79
2023/07/06 03:06:51;;;;;;;6.60;1.50;;;;;;;13.55;81.59;100333.40;109858;1277;22211;-80
2023/07/06 03:09:21;;;;;;;11.50;1.70;;;;;;;13.53;81.66;100334.32;109858;1277;22245;-80
2023/07/06 03:11:52;;;;;;;10.70;1.70;;;;;;;13.51;81.56;100333.23;109869;1281;22197;-79
2023/07/06 03:14:25;;;;;;;8.70;1.80;;;;;;;13.48;81.54;100334.88;109869;1277;22273;-79
2023/07/06 03:16:56;;;;;;;14.70;1.90;;;;;;;13.46;81.47;100336.45;109888;1283;22243;-79
2023/07/06 03:19:27;;;;;;;8.00;1.60;;;;;;;13.44;81.62;100336.73;109883;1280;22175;-79
2023/07/06 03:21:58;;;;;;;11.90;2.40;;;;;;;13.42;81.65;100332.48;109905;1280;22879;-79
2023/07/06 03:24:29;;;;;;;13.90;1.80;;;;;;;13.40;81.60;100329.96;109906;1276;23007;-79
2023/07/06 03:27:01;;;;;;;10.20;1.50;;;;;;;13.39;81.68;100331.08;109910;1277;22159;-80
2023/07/06 03:29:35;;;;;;;7.80;1.80;;;;;;;13.39;81.70;100329.70;109891;1280;22125;-79
2023/07/06 03:32:07;;;;;;;10.60;1.70;;;;;;;13.41;81.93;100332.21;109845;1284;22328;-79
2023/07/06 03:34:37;;;;;;;17.30;2.40;;;;;;;13.42;81.96;100343.60;109880;1277;22291;-79
2023/07/06 03:37:08;;;;;;;14.40;1.80;;;;;;;13.44;82.46;100348.16;109875;1270;22388;-79
2023/07/06 03:39:39;;;;;;;13.30;2.40;;;;;;;13.45;82.39;100349.70;109876;1283;22212;-79
2023/07/06 03:42:10;;;;;;;8.70;2.10;;;;;;;13.47;82.52;100356.95;109890;1277;22321;-79
2023/07/06 03:44:41;;;;;;;9.80;1.60;;;;;;;13.52;83.06;100362.70;109899;1282;23233;-79
2023/07/06 03:47:11;;;;;;;8.90;1.60;;;;;;;13.56;83.26;100363.92;109877;1283;22342;-79
2023/07/06 03:49:42;;;;;;;7.40;1.80;;;;;;;13.60;83.55;100369.27;109908;1276;22204;-79
2023/07/06 03:52:16;;;;;;;7.70;1.60;;;;;;;13.65;83.57;100371.55;109893;1280;22691;-79
2023/07/06 03:54:47;;;;;;;10.40;1.60;;;;;;;13.71;83.71;100375.27;109921;1283;22201;-79
2023/07/06 03:57:18;;;;;;;13.80;1.80;;;;;;;13.76;84.06;100376.48;109906;1277;22204;-79
2023/07/06 03:59:50;;;;;;;7.20;1.50;;;;;;;13.80;84.13;100382.59;109902;1277;22209;-80
2023/07/06 04:02:21;;;;;;;9.50;1.90;;;;;;;13.87;84.26;100387.09;109882;1276;22189;-79
2023/07/06 04:04:54;;;;;;;14.50;2.40;;;;;;;13.92;84.45;100386.61;109897;1280;22232;-79
2023/07/06 04:07:25;;;;;;;9.70;2.00;;;;;;;13.98;84.72;100385.23;109902;1276;22194;-80
2023/07/06 04:09:56;;;;;;;11.10;1.80;;;;;;;14.06;85.11;100387.99;109875;1283;22193;-80
2023/07/06 04:12:27;;;;;;;11.00;2.20;;;;;;;14.13;85.63;100393.20;109845;1280;23120;-80
2023/07/06 04:14:58;;;;;;;13.00;2.30;;;;;;;14.23;85.95;100395.25;109875;1283;22227;-79
2023/07/06 04:17:28;;;;;;;13.80;2.60;;;;;;;14.31;86.14;100395.27;109871;1283;22900;-80
2023/07/06 04:20:00;;;;;;;14.60;2.50;;;;;;;14.40;86.03;100400.10;109875;1276;22658;-79
2023/07/06 04:22:31;;;;;;;12.60;2.60;;;;;;;14.48;86.39;100403.92;109893;1276;22346;-80
2023/07/06 04:25:02;;;;;;;22.50;2.60;;;;;;;14.55;86.33;100404.43;109890;1283;22186;-80
2023/07/06 04:27:33;;;;;;;10.60;1.90;;;;;;;14.61;86.24;100408.23;109901;1283;22149;-80
2023/07/06 04:30:05;;;;;;;13.40;2.00;;;;;;;14.68;86.44;100409.70;109892;1277;22175;-80
2023/07/06 04:32:36;;;;;;;9.50;1.90;;;;;;;14.72;86.19;100411.25;109883;1276;22168;-80
2023/07/06 04:35:11;;;;;;;10.70;2.40;;;;;;;14.75;86.21;100414.34;109892;1280;22728;-79
2023/07/06 04:37:42;;;;;;;15.30;2.50;;;;;;;14.78;86.10;100409.49;109928;1280;22175;-79
2023/07/06 04:40:17;;;;;;;13.50;2.30;;;;;;;14.83;86.32;100414.46;109915;1278;23380;-79
2023/07/06 04:42:50;;;;;;;19.90;3.20;;;;;;;14.87;86.28;100413.52;109925;1283;22153;-79
2023/07/06 04:45:22;;;;;;;12.30;2.50;;;;;;;14.91;86.25;100413.64;109931;1276;22252;-79
2023/07/06 04:47:56;;;;;;;13.50;2.50;;;;;;;14.96;85.76;100417.23;109946;1277;22376;-79
2023/07/06 04:50:27;;;;;;;16.10;2.70;;;;;;;15.01;85.81;100421.50;110000;1281;22213;-79
2023/07/06 04:53:02;;;;;;;14.00;2.60;;;;;;;15.05;85.34;100421.20;109973;1283;22163;-80
2023/07/06 04:55:34;;;;;;;13.20;2.50;;;;;;;15.09;85.44;100425.73;109855;1277;22187;-79
2023/07/06 04:58:06;;;;;;;10.80;2.10;;;;;;;15.14;85.22;100432.18;109906;1277;23132;-80
2023/07/06 05:00:39;;;;;;;13.70;2.90;;;;;;;15.18;85.41;100435.46;109878;1283;22168;-78
2023/07/06 05:03:10;;;;;;;12.70;2.60;;;;;;;15.24;85.58;100438.65;109897;1276;22800;-82
2023/07/06 05:05:45;;;;;;;16.60;2.70;;;;;;;15.31;85.55;100441.03;109876;1283;22211;-82
2023/07/06 05:08:19;;;;;;;16.00;2.90;;;;;;;15.38;85.41;100441.10;109890;1283;22165;-83
2023/07/06 05:10:53;;;;;;;14.70;2.10;;;;;;;15.44;85.40;100446.66;109862;1283;22344;-82
2023/07/06 05:13:24;;;;;;;14.80;2.30;;;;;;;15.50;85.33;100448.69;109864;1283;22221;-82
2023/07/06 05:15:56;;;;;;;12.30;2.50;;;;;;;15.55;85.16;100450.89;109874;1283;22169;-82
2023/07/06 05:18:29;;;;;;;10.40;2.00;;;;;;;15.60;85.23;100456.84;109888;1280;22206;-82
2023/07/06 05:21:00;;;;;;;10.60;2.20;;;;;;;15.65;84.78;100463.41;109879;1283;22879;-82
2023/07/06 05:23:31;;;;;;;19.00;3.00;;;;;;;15.69;84.80;100468.58;109859;1280;22777;-82
2023/07/06 05:26:02;;;;;;;14.60;2.40;;;;;;;15.75;84.57;100462.90;109883;1280;22209;-82
2023/07/06 05:28:34;;;;;;;10.80;2.10;;;;;;;15.80;84.50;100468.70;105766;1276;22197;-82
2023/07/06 05:31:06;;;;;;;14.20;2.80;;;;;;;15.85;84.29;100468.34;109919;1277;22899;-82
2023/07/06 05:33:38;;;;;;;12.00;3.40;;;;;;;15.90;84.37;100463.73;109876;1283;22766;-82
2023/07/06 05:36:09;;;;;;;12.30;2.60;;;;;;;15.95;84.16;100459.76;109896;1276;22181;-82
2023/07/06 05:38:40;;;;;;;9.60;2.20;;;;;;;16.00;83.85;100456.42;109892;1277;23228;-82
2023/07/06 05:41:11;;;;;;;6.70;1.90;;;;;;;16.06;83.89;100462.83;109881;1283;22239;-82
2023/07/06 05:43:42;;;;;;;9.20;1.50;;;;;;;16.11;83.89;100461.25;109930;1275;22172;-82
2023/07/06 05:46:13;;;;;;;10.20;2.10;;;;;;;16.15;83.61;100457.39;109908;1263;22811;-83
2023/07/06 05:48:44;;;;;;;9.70;1.80;;;;;;;16.19;83.25;100460.27;109902;1277;22164;-83
2023/07/06 05:51:15;;;;;;;13.50;2.60;;;;;;;16.22;82.91;100466.73;109896;1282;22178;-83
2023/07/06 05:53:48;;;;;;;9.40;1.70;;;;;;;16.26;82.72;100471.23;109887;1280;22148;-83
2023/07/06 05:56:23;;;;;;;14.80;2.30;;;;;;;16.31;82.41;100475.68;109905;1280;22206;-83
2023/07/06 05:58:54;;;;;;;8.70;1.90;;;;;;;16.34;82.54;100469.38;109893;1280;22925;-83
2023/07/06 06:01:25;;;;;;;14.10;2.40;;;;;;;16.37;81.93;100462.30;109893;1283;22943;-83
2023/07/06 06:03:56;;;;;;;14.50;2.80;;;;;;;16.39;81.74;100466.66;109892;1277;22189;-83
2023/07/06 06:06:29;;;;;;;12.90;2.40;;;;;;;16.38;81.32;100467.23;109881;1277;22230;-83
2023/07/06 06:09:00;;;;;;;17.70;3.60;;;;;;;16.37;81.47;100468.96;109865;1277;22216;-83
2023/07/06 06:11:33;;;;;;;12.10;2.20;;;;;;;16.40;81.55;100472.69;109897;1280;22151;-83
2023/07/06 06:14:04;;;;;;;13.20;2.10;;;;;;;16.43;81.46;100473.83;109887;1276;22681;-83
2023/07/06 06:16:36;;;;;;;12.70;2.00;;;;;;;16.44;81.44;100475.58;109878;1283;22164;-83
2023/07/06 06:19:07;;;;;;;16.10;3.00;;;;;;;16.46;80.85;100481.19;109875;1276;22348;-83
2023/07/06 06:21:38;;;;;;;9.10;2.10;;;;;;;16.49;80.51;100474.34;109888;1283;22976;-83
2023/07/06 06:24:11;;;;;;;12.40;2.00;;;;;;;16.54;80.51;100476.55;109891;1277;22334;-83
2023/07/06 06:26:42;;;;;;;13.60;2.90;;;;;;;16.61;80.65;100476.85;109909;1277;22760;-83
2023/07/06 06:29:13;;;;;;;12.30;2.30;;;;;;;16.70;80.98;100475.50;109893;1277;22193;-83
2023/07/06 06:31:44;;;;;;;11.40;2.30;;;;;;;16.78;80.73;100479.17;109883;1277;22223;-83
2023/07/06 06:34:15;;;;;;;12.40;2.00;;;;;;;16.83;80.53;100482.30;109883;1276;22276;-83
2023/07/06 06:36:46;;;;;;;11.80;2.30;;;;;;;16.89;80.45;100482.27;109900;1283;22206;-83
2023/07/06 06:39:17;;;;;;;11.90;2.20;;;;;;;16.94;80.58;100487.70;109891;1275;22156;-83
2023/07/06 06:41:48;;;;;;;14.60;2.00;;;;;;;17.02;80.77;100491.15;109913;1282;22119;-83
2023/07/06 06:44:19;;;;;;;14.60;2.30;;;;;;;17.10;80.77;100490.31;109904;1277;22234;-83
2023/07/06 06:46:50;;;;;;;11.70;2.30;;;;;;;17.19;80.11;100489.40;109903;1281;22195;-83
2023/07/06 06:49:22;;;;;;;10.80;2.40;;;;;;;17.26;79.51;100489.59;109889;1276;22243;-83
2023/07/06 06:51:54;;;;;;;12.10;2.00;;;;;;;17.33;79.32;100498.02;109902;1283;23017;-83
2023/07/06 06:54:25;;;;;;;7.10;1.70;;;;;;;17.38;78.67;100500.71;109908;1277;22245;-83
2023/07/06 06:56:55;;;;;;;13.20;2.50;;;;;;;17.45;78.97;100503.81;109904;1277;22210;-83
2023/07/06 06:59:27;;;;;;;11.10;2.40;;;;;;;17.51;78.72;100500.21;109865;1276;22146;-83
2023/07/06 07:02:00;;;;;;;10.70;2.00;;;;;;;17.55;78.51;100504.40;109921;1277;22198;-83
2023/07/06 07:04:33;;;;;;;9.50;2.00;;;;;;;17.60;78.26;100511.35;109882;1277;22160;-80
2023/07/06 07:07:03;;;;;;;14.60;2.00;;;;;;;17.63;77.99;100506.58;109885;1276;22169;-82
2023/07/06 07:09:34;;;;;;;15.30;2.60;;;;;;;17.64;77.91;100509.44;109900;1283;22199;-81
2023/07/06 07:12:07;;;;;;;8.70;1.80;;;;;;;17.65;77.76;100503.05;109881;1278;22239;-81
2023/07/06 07:14:38;;;;;;;12.80;1.90;;;;;;;17.67;77.72;100504.86;109899;1276;22188;-81
2023/07/06 07:17:10;;;;;;;13.40;1.70;;;;;;;17.73;77.10;100505.29;109903;1278;23125;-81
2023/07/06 07:19:41;;;;;;;7.20;1.80;;;;;;;17.79;76.71;100502.88;109848;1268;22201;-81
2023/07/06 07:22:11;;;;;;;9.70;1.70;;;;;;;17.87;76.31;100501.70;109888;1277;24229;-81
2023/07/06 07:24:43;;;;;;;7.70;2.10;;;;;;;17.96;76.26;100501.54;109909;1283;22152;-81
2023/07/06 07:27:14;;;;;;;10.60;1.70;;;;;;;18.05;75.69;100499.11;109933;1283;22172;-82
2023/07/06 07:29:46;;;;;;;11.50;1.80;;;;;;;18.16;74.93;100500.01;109918;1282;22916;-81
2023/07/06 07:32:20;;;;;;;8.00;1.40;;;;;;;18.30;73.66;100505.91;109942;1277;22333;-83
2023/07/06 07:34:52;;;;;;;13.00;2.40;;;;;;;18.40;72.82;100504.23;109901;1277;22130;-81
2023/07/06 07:37:22;;;;;;;11.80;2.90;;;;;;;18.52;72.26;100504.27;109885;1276;22937;-81
2023/07/06 07:39:55;;;;;;;8.00;2.00;;;;;;;18.66;71.60;100502.80;109873;1283;22106;-82
2023/07/06 07:42:26;;;;;;;6.60;1.40;;;;;;;18.80;70.24;100499.25;109903;1276;22219;-82
2023/07/06 07:44:57;;;;;;;5.70;1.40;;;;;;;18.91;68.54;100500.11;109905;1280;22222;-82
2023/07/06 07:47:29;;;;;;;6.70;1.30;;;;;;;18.97;68.30;100498.61;109910;1282;22212;-82
2023/07/06 07:50:00;;;;;;;7.00;1.30;;;;;;;19.07;67.88;100497.52;109886;1281;22905;-82
2023/07/06 07:52:31;;;;;;;11.20;1.50;;;;;;;19.19;67.31;100497.48;109892;1276;22169;-82
2023/07/06 07:55:02;;;;;;;8.00;1.40;;;;;;;19.30;66.83;100495.80;109900;1283;22180;-82
2023/07/06 07:57:33;;;;;;;6.20;1.40;;;;;;;19.39;65.50;100499.72;109921;1264;22155;-82
2023/07/06 08:00:07;;;;;;;8.00;1.30;;;;;;;19.52;65.52;100499.73;109886;1274;22157;-82
2023/07/06 08:02:38;;;;;;;5.70;0.90;;;;;;;19.60;64.64;100496.67;109927;1283;22198;-81
2023/07/06 08:05:10;;;;;;;10.70;1.50;;;;;;;19.67;63.29;100500.93;109902;1276;23101;-82
2023/07/06 08:07:45;;;;;;;10.10;1.00;;;;;;;19.73;62.71;100502.45;109905;1277;22839;-82
2023/07/06 08:10:17;;;;;;;8.80;1.50;;;;;;;19.81;62.05;100503.38;109898;1278;22453;-82
2023/07/06 08:12:49;;;;;;;4.90;1.00;;;;;;;19.93;61.40;100507.94;109915;1282;23113;-82
2023/07/06 08:15:22;;;;;;;6.20;1.00;;;;;;;20.00;60.84;100504.80;109878;1276;22819;-82
2023/07/06 08:17:53;;;;;;;5.10;0.80;;;;;;;20.05;60.20;100502.66;109911;1277;22233;-82
2023/07/06 08:20:24;;;;;;;7.30;1.10;;;;;;;20.10;59.74;100498.83;109888;1281;22910;-82
2023/07/06 08:22:57;;;;;;;4.30;0.90;;;;;;;20.22;59.43;100500.51;109917;1275;22286;-82
2023/07/06 08:25:28;;;;;;;5.60;1.10;;;;;;;20.31;59.31;100501.71;109955;1276;22223;-82
2023/07/06 08:28:01;;;;;;;7.20;0.90;;;;;;;20.40;59.12;100497.38;110024;1283;22228;-81
2023/07/06 08:30:32;;;;;;;8.70;1.40;;;;;;;20.54;58.61;100504.14;110048;1282;22826;-82
2023/07/06 08:33:04;;;;;;;7.10;1.10;;;;;;;20.66;57.14;100505.95;109885;1264;22565;-82
2023/07/06 08:35:35;;;;;;;7.80;1.00;;;;;;;20.70;56.49;100504.80;109869;1283;22975;-82
2023/07/06 08:38:06;;;;;;;4.80;1.00;;;;;;;20.72;56.22;100501.19;109925;1277;22171;-80
2023/07/06 08:40:37;;;;;;;7.10;1.30;;;;;;;20.77;56.52;100504.60;109883;1276;22548;-81
2023/07/06 08:43:13;;;;;;;10.40;1.40;;;;;;;20.88;56.16;100503.11;109923;1279;22191;-82
2023/07/06 08:45:46;;;;;;;5.40;1.00;;;;;;;20.95;54.97;100503.53;109918;1283;22200;-83
2023/07/06 08:48:20;;;;;;;5.90;1.20;;;;;;;20.98;54.39;100504.73;109914;1276;22983;-83
2023/07/06 08:50:56;;;;;;;9.40;1.10;;;;;;;21.01;54.16;100503.80;109882;1276;22204;-83
2023/07/06 08:53:30;;;;;;;7.50;1.00;;;;;;;21.09;54.31;100503.07;109912;1276;22187;-86
2023/07/06 08:56:04;;;;;;;7.00;1.10;;;;;;;21.21;54.19;100501.77;109938;1280;22939;-84
2023/07/06 08:58:41;;;;;;;7.40;1.10;;;;;;;21.26;53.02;100499.77;109933;1280;22199;-85
2023/07/06 09:01:16;;;;;;;7.20;1.30;;;;;;;21.33;53.30;100495.53;109959;1276;22343;-85
2023/07/06 09:03:50;;;;;;;6.60;1.20;;;;;;;21.45;53.65;100497.50;109956;1278;22182;-85
2023/07/06 09:06:26;;;;;;;4.10;1.00;;;;;;;21.58;53.33;100494.83;109917;1273;22353;-84
2023/07/06 09:09:03;;;;;;;8.30;1.10;;;;;;;21.71;52.89;100499.98;109868;1280;22236;-85
2023/07/06 09:11:37;;;;;;;7.50;1.00;;;;;;;21.79;51.89;100500.67;109872;1282;23261;-87
2023/07/06 09:14:13;;;;;;;7.30;1.10;;;;;;;21.83;51.65;100502.22;109940;1283;22515;-84
2023/07/06 09:16:55;;;;;;;7.70;1.20;;;;;;;21.90;51.11;100508.58;109847;1277;22302;-82
2023/07/06 09:19:27;;;;;;;6.10;1.00;;;;;;;21.91;49.85;100507.06;109876;1283;22978;-84
2023/07/06 09:21:58;;;;;;;8.10;1.10;;;;;;;21.90;49.97;100503.67;109904;1278;22183;-84
2023/07/06 09:24:29;;;;;;;9.20;1.30;;;;;;;21.98;50.29;100501.30;109935;1274;22180;-83
2023/07/06 09:27:00;;;;;;;10.50;1.70;;;;;;;22.09;49.60;100503.84;109888;1280;22163;-80
2023/07/06 09:29:35;;;;;;;6.10;1.10;;;;;;;22.13;49.14;100503.47;109892;1280;22610;-81
2023/07/06 09:32:17;;;;;;;10.10;1.30;;;;;;;22.19;49.33;100501.32;109883;1280;22281;-80
2023/07/06 09:34:52;;;;;;;6.10;1.10;;;;;;;22.27;48.78;100505.46;109897;1277;22988;-79
2023/07/06 09:37:23;;;;;;;6.60;1.30;;;;;;;22.31;48.04;100504.79;109900;1283;22192;-82
2023/07/06 09:40:06;;;;;;;4.80;1.10;;;;;;;22.26;47.42;100509.36;109923;1283;22201;-80
2023/07/06 09:42:37;;;;;;;7.70;1.10;;;;;;;22.18;46.97;100511.17;109921;1280;23227;-78
2023/07/06 09:45:34;;;;;;;8.70;1.20;;;;;;;22.11;47.19;100517.44;109925;1274;22413;-78
2023/07/06 09:48:15;;;;;;;9.00;1.00;;;;;;;22.02;46.50;100517.65;109917;1283;22148;-78
2023/07/06 09:50:52;;;;;;;7.90;1.10;;;;;;;21.94;47.02;100516.75;109894;1283;22326;-79
2023/07/06 09:53:31;;;;;;;9.40;1.10;;;;;;;21.96;46.94;100514.33;109929;1277;22383;-79
2023/07/06 09:56:04;;;;;;;8.00;1.40;;;;;;;22.05;47.54;100514.00;109940;1264;22193;-78
2023/07/06 09:58:35;;;;;;;13.50;1.30;;;;;;;22.19;47.49;100514.83;109882;1276;22587;-77
2023/07/06 10:01:13;;;;;;;6.90;1.10;;;;;;;22.35;47.98;100518.04;109935;1283;22176;-79
2023/07/06 10:03:52;;;;;;;6.50;1.00;;;;;;;22.55;46.71;100516.46;109923;1283;23200;-79
2023/07/06 10:07:07;;;;;;;6.10;1.00;;;;;;;22.73;47.29;100516.02;109888;1277;22137;-80
2023/07/06 10:09:42;;;;;;;5.90;1.00;;;;;;;22.95;46.21;100516.48;109905;1283;22961;-79
2023/07/06 10:12:22;;;;;;;6.40;0.80;;;;;;;23.11;45.24;100518.38;109943;1276;22219;-80
2023/07/06 10:14:53;;;;;;;6.90;1.00;;;;;;;23.23;44.88;100518.30;109906;1283;22135;-79
2023/07/06 10:17:37;;;;;;;4.70;0.90;;;;;;;23.29;44.38;100515.34;109898;1277;22690;-79
2023/07/06 10:20:17;;;;;;;5.20;1.00;;;;;;;23.40;46.03;100514.97;109874;1278;23142;-79
2023/07/06 10:23:04;;;;;;;9.80;1.10;;;;;;;23.55;46.51;100516.02;109919;1278;22804;-79
2023/07/06 10:25:42;;;;;;;6.00;1.20;;;;;;;23.62;46.17;100514.08;109879;1277;23249;-78
2023/07/06 10:28:19;;;;;;;7.00;1.10;;;;;;;23.68;45.88;100510.05;109894;1277;22404;-78
2023/07/06 10:30:53;;;;;;;7.20;1.30;;;;;;;23.82;45.85;100510.63;109874;1276;22158;-78
2023/07/06 10:33:29;;;;;;;8.60;1.20;;;;;;;24.01;46.06;100508.83;109916;1277;22265;-79
2023/07/06 10:36:01;;;;;;;7.40;1.10;;;;;;;24.19;45.83;100507.66;109940;1280;22217;-80
2023/07/06 10:38:32;;;;;;;9.10;1.10;;;;;;;24.35;45.63;100508.23;109888;1283;22197;-80
2023/07/06 10:41:29;;;;;;;9.80;1.00;;;;;;;24.47;45.32;100508.08;109884;1280;23241;-79
2023/07/06 10:44:21;;;;;;;8.00;1.30;;;;;;;24.57;45.26;100505.72;109934;1280;22177;-87
2023/07/06 10:46:58;;;;;;;8.20;1.10;;;;;;;24.72;44.56;100505.36;109938;1277;22187;-88
2023/07/06 10:49:30;;;;;;;6.40;1.30;;;;;;;24.87;44.84;100499.10;109952;1276;22109;-88
2023/07/06 10:52:01;;;;;;;6.40;1.20;;;;;;;25.01;44.50;100497.67;109994;1277;22270;-88
2023/07/06 10:54:34;;;;;;;6.50;1.20;;;;;;;25.10;44.16;100498.23;110003;1279;22195;-88
2023/07/06 10:57:11;;;;;;;8.30;1.00;;;;;;;25.18;43.67;100500.02;109975;1276;22177;-88
2023/07/06 10:59:48;;;;;;;5.00;1.10;;;;;;;25.21;43.13;100506.77;109975;1277;22159;-88
2023/07/06 11:02:25;;;;;;;9.80;1.30;;;;;;;25.25;42.55;100508.86;109976;1274;22169;-89
2023/07/06 11:05:08;;;;;;;6.20;1.00;;;;;;;25.29;42.15;100509.58;109938;1280;22798;-89
2023/07/06 11:07:50;;;;;;;6.60;1.10;;;;;;;25.20;41.78;100508.60;109914;1280;22208;-88
2023/07/06 11:10:45;;;;;;;7.90;1.20;;;;;;;25.18;42.36;100505.33;109951;1277;22236;-88
2023/07/06 11:13:22;;;;;;;5.90;0.90;;;;;;;25.26;42.32;100501.73;109949;1276;22364;-88
2023/07/06 11:15:59;;;;;;;8.10;1.10;;;;;;;25.38;42.31;100500.55;109987;1283;23227;-88
2023/07/06 11:18:36;;;;;;;6.00;1.00;;;;;;;25.53;42.12;100507.66;109947;1278;22265;-88
2023/07/06 11:21:28;;;;;;;7.10;1.00;;;;;;;25.65;41.87;100504.92;109982;1276;22344;-88
2023/07/06 11:24:06;;;;;;;6.00;0.90;;;;;;;25.67;41.35;100504.09;109950;1264;22210;-86
2023/07/06 11:26:45;;;;;;;9.30;1.00;;;;;;;25.59;41.26;100505.91;109941;1277;22913;-88
2023/07/06 11:29:20;;;;;;;6.20;1.10;;;;;;;25.46;41.04;100509.81;109956;1277;22246;-88
2023/07/06 11:32:06;;;;;;;13.50;1.30;;;;;;;25.31;40.22;100512.39;109929;1280;22334;-88
2023/07/06 11:34:48;;;;;;;7.30;1.30;;;;;;;25.13;40.37;100511.59;109914;1277;22219;-88
2023/07/06 11:37:29;;;;;;;7.70;1.00;;;;;;;25.08;40.47;100511.91;109952;1277;22222;-88
2023/07/06 11:40:15;;;;;;;4.10;1.00;;;;;;;25.14;40.06;100507.48;109933;1279;22390;-87
2023/07/06 11:43:02;;;;;;;5.70;1.10;;;;;;;25.21;39.64;100510.20;109937;1283;22182;-85
2023/07/06 11:45:50;;;;;;;7.00;1.10;;;;;;;25.28;39.51;100509.69;109947;1283;22160;-79